KSYI/SYI METAR and TAF weather

Enter ICAO airport designator
Station Type Date Time Source
KSYI METAR 2019/12/16 05:55 UTC NOAA

KSYI 160555Z AUTO 19018G25KT 10SM FEW020 FEW035 BKN045 15/13 A2994 RMK A01


Station Type Date Time Source
KSYI Decoded METAR 2019/12/16 05:55 UTC NOAA

Station name not available
Dec 16, 2019 - 12:55 AM EST / 2019.12.16 0555 UTC
Wind: from the S (190 degrees) at 21 MPH (18 KT) gusting to 29 MPH (25 KT):0
Visibility: 10 mile(s):0
Sky conditions: mostly cloudy
Temperature: 59 F (15 C)
Dew Point: 55 F (13 C)
Relative Humidity: 87%
Pressure (altimeter): 29.94 in. Hg (1013 hPa)
ob: KSYI 160555Z AUTO 19018G25KT 10SM FEW020 FEW035 BKN045 15/13 A2994 RMK A01
cycle: 6

Station Type Date Time Source
KSYI TAF UTC NOAA

Error!

Example: see airport list